Terminal Aerodrome Forecast
Issued by NWS

Current Version | Previous Version | Graphics & Text | Print | Product List | Glossary On
Versions: 1 2 3 4 5 6 7 8 9 10 11 12 13 14 15 16 17 18 19 20
000
FTUS41 KRNK 201722
TAFLWB
TAF
KLWB 201722Z 2018/2118 30006G16KT P6SM VCTS SCT035CB BKN060
     FM202000 25007KT P6SM VCTS SCT050CB
     FM202200 24006KT P6SM VCSH SCT050
     FM210000 VRB04KT P6SM FEW060
     FM211200 26007KT P6SM OVC025=

USA.gov is the U.S. government's official web portal to all federal, state and local government web resources and services.